Time;durP1;ratioP1;P1;durP2;ratioP2;P2;SDS_P1;SDS_P2;PMS_P1;PMS_P2;Temp;Humidity;BMP_temperature;BMP_pressure;BME280_temperature;BME280_humidity;BME280_pressure;Samples;Min_cycle;Max_cycle;Signal;HPM_P1;HPM_P2
2021/12/10 00:00:08;;;;;;;1.80;1.70;;;14.30;55.90;15.30;99163.00;;;;4970294;28;20663;-43
2021/12/10 00:02:35;;;;;;;1.93;1.83;;;14.20;55.70;15.30;99152.00;;;;4969841;28;20201;-42
2021/12/10 00:05:03;;;;;;;1.90;1.80;;;14.20;56.10;15.30;99142.00;;;;4969963;28;20169;-42
2021/12/10 00:07:29;;;;;;;1.80;1.70;;;14.20;55.80;15.30;99144.00;;;;4969562;28;20181;-43
2021/12/10 00:10:01;;;;;;;1.70;1.60;;;14.20;55.90;15.30;99135.00;;;;4969940;28;20212;-42
2021/12/10 00:12:37;;;;;;;1.73;1.63;;;14.20;55.80;15.20;99121.00;;;;4970399;28;20227;-42
2021/12/10 00:15:05;;;;;;;1.80;1.70;;;14.20;55.90;15.20;99124.00;;;;4970148;28;20395;-42
2021/12/10 00:17:30;;;;;;;1.80;1.70;;;14.10;56.00;15.20;99124.00;;;;4969860;28;20209;-43
2021/12/10 00:19:58;;;;;;;2.00;1.80;;;14.10;55.80;15.20;99114.00;;;;4969645;28;20734;-42
2021/12/10 00:22:40;;;;;;;2.10;1.90;;;14.10;55.90;15.20;99110.00;;;;4969298;28;20201;-43
2021/12/10 00:25:14;;;;;;;1.93;1.80;;;14.10;56.00;15.20;99104.00;;;;4969267;28;20180;-43
2021/12/10 00:27:39;;;;;;;2.17;1.90;;;14.10;55.80;15.20;99108.00;;;;4969154;28;20196;-43
2021/12/10 00:30:14;;;;;;;1.90;1.80;;;14.10;56.00;15.10;99091.00;;;;4969047;28;20204;-42
2021/12/10 00:32:46;;;;;;;1.70;1.60;;;14.10;56.00;15.10;99096.00;;;;4968597;28;20216;-43
2021/12/10 00:35:20;;;;;;;1.80;1.70;;;14.00;56.10;15.10;99079.00;;;;4968989;28;20202;-42
2021/12/10 00:37:45;;;;;;;1.70;1.60;;;14.00;55.80;15.10;99078.00;;;;4968907;28;20321;-42
2021/12/10 00:40:12;;;;;;;1.90;1.80;;;14.00;55.90;15.10;99065.00;;;;4968721;28;20169;-43
2021/12/10 00:42:38;;;;;;;1.73;1.63;;;14.00;55.90;15.10;99055.00;;;;4968818;28;20243;-44
2021/12/10 00:45:07;;;;;;;1.60;1.50;;;13.90;56.00;15.00;99055.00;;;;4967365;28;20364;-43
2021/12/10 00:47:32;;;;;;;1.80;1.70;;;13.90;55.80;15.00;99059.00;;;;4968572;28;20561;-42
2021/12/10 00:49:58;;;;;;;1.80;1.70;;;13.90;55.90;15.00;99060.00;;;;4968968;28;20181;-43
2021/12/10 00:52:24;;;;;;;1.70;1.60;;;13.90;55.80;15.00;99054.00;;;;4968206;28;20715;-43
2021/12/10 00:54:50;;;;;;;1.67;1.57;;;13.90;56.00;15.00;99056.00;;;;4968059;28;20648;-42
2021/12/10 00:57:16;;;;;;;1.70;1.60;;;13.90;56.00;15.00;99040.00;;;;4968598;28;20174;-42
2021/12/10 00:59:44;;;;;;;1.80;1.70;;;13.90;55.90;15.00;99047.00;;;;4968794;28;20184;-42
2021/12/10 01:02:11;;;;;;;1.80;1.70;;;13.90;56.20;15.00;99051.00;;;;4968283;28;20192;-42
2021/12/10 01:04:39;;;;;;;1.70;1.60;;;13.80;55.90;14.70;99049.00;;;;4968401;28;20177;-43
2021/12/10 01:07:09;;;;;;;1.70;1.60;;;13.80;56.00;14.90;99048.00;;;;4968238;28;20392;-42
2021/12/10 01:09:38;;;;;;;1.90;1.80;;;13.80;55.90;14.90;99035.00;;;;4968740;28;20225;-43
2021/12/10 01:12:11;;;;;;;1.63;1.53;;;13.80;55.90;14.90;99033.00;;;;4967915;28;20679;-42
2021/12/10 01:28:48;;;;;;;1.90;1.80;;;13.70;55.90;14.80;99003.00;;;;4967532;28;20196;-43
2021/12/10 01:31:13;;;;;;;1.80;1.70;;;13.70;56.60;14.80;98996.00;;;;4967450;28;20169;-43
2021/12/10 01:33:39;;;;;;;1.80;1.70;;;13.70;55.80;14.70;98986.00;;;;4967583;28;20215;-43
2021/12/10 01:36:08;;;;;;;1.70;1.60;;;13.70;55.80;14.70;98991.00;;;;4967744;28;20169;-43
2021/12/10 01:38:40;;;;;;;1.70;1.60;;;13.70;55.80;14.70;98988.00;;;;4967761;28;20173;-42
2021/12/10 01:41:09;;;;;;;1.50;1.40;;;13.70;56.40;14.70;98985.00;;;;4967768;28;20169;-43
2021/12/10 01:43:38;;;;;;;1.80;1.70;;;13.60;55.70;14.70;98981.00;;;;4967840;28;20197;-43
2021/12/10 01:46:11;;;;;;;1.70;1.60;;;13.60;55.70;14.70;98971.00;;;;4966002;28;20184;-43
2021/12/10 01:48:50;;;;;;;1.50;1.40;;;13.70;55.70;14.70;98968.00;;;;4967786;28;20252;-43
2021/12/10 01:51:22;;;;;;;2.47;1.77;;;13.90;55.60;14.80;98952.00;;;;4967637;28;20161;-42
2021/12/10 01:53:50;;;;;;;1.90;1.80;;;14.10;55.40;14.90;98955.00;;;;4967325;28;20274;-42
2021/12/10 01:56:22;;;;;;;1.80;1.70;;;14.30;55.20;15.00;98942.00;;;;4967561;28;20590;-41
2021/12/10 01:58:49;;;;;;;1.90;1.80;;;14.60;54.80;15.20;98941.00;;;;4967258;28;20160;-42
2021/12/10 02:01:23;;;;;;;1.60;1.50;;;14.90;54.70;15.30;98940.00;;;;4967260;28;20181;-42
2021/12/10 02:03:50;;;;;;;1.80;1.70;;;15.10;54.40;15.50;98954.00;;;;4967557;28;20251;-43
2021/12/10 02:06:15;;;;;;;1.50;1.40;;;15.20;54.10;15.60;98953.00;;;;4967159;28;20180;-42
2021/12/10 02:08:41;;;;;;;1.60;1.50;;;15.40;54.00;15.70;98952.00;;;;4967295;28;20175;-43
2021/12/10 02:11:07;;;;;;;1.80;1.70;;;15.50;53.90;15.80;98940.00;;;;4966827;28;20169;-43
2021/12/10 02:13:33;;;;;;;1.60;1.50;;;15.50;53.90;15.90;98869.00;;;;4967388;28;20201;-42
2021/12/10 02:15:59;;;;;;;1.77;1.67;;;15.60;54.00;16.00;98940.00;;;;4967248;28;20655;-42
2021/12/10 02:18:25;;;;;;;1.70;1.60;;;15.60;54.00;16.00;98925.00;;;;4967512;28;20176;-43
2021/12/10 02:20:53;;;;;;;1.73;1.63;;;15.60;54.00;16.10;98922.00;;;;4966691;28;20176;-43
2021/12/10 02:23:19;;;;;;;1.60;1.50;;;15.60;54.10;16.10;98921.00;;;;4966646;28;20664;-42
2021/12/10 02:25:44;;;;;;;1.90;1.53;;;15.60;54.00;16.20;98911.00;;;;4967042;28;20173;-42
2021/12/10 02:28:11;;;;;;;1.73;1.63;;;15.60;54.10;16.20;98910.00;;;;4967037;28;20260;-43
2021/12/10 02:30:39;;;;;;;1.60;1.50;;;15.60;54.20;16.20;98898.00;;;;4949583;28;20314;-43
2021/12/10 02:33:04;;;;;;;1.77;1.67;;;15.60;54.10;16.20;98888.00;;;;4965267;28;20871;-43
2021/12/10 02:35:30;;;;;;;1.70;1.60;;;15.60;54.20;16.20;98896.00;;;;4966754;28;20166;-41
2021/12/10 02:37:56;;;;;;;1.30;1.30;;;15.60;54.30;16.20;98879.00;;;;4966968;28;20228;-42
2021/12/10 02:40:23;;;;;;;1.20;1.20;;;15.50;54.40;16.20;98873.00;;;;4967183;28;20173;-42
2021/12/10 02:42:49;;;;;;;1.70;1.60;;;15.50;54.40;16.20;98850.00;;;;4967079;28;20201;-42
2021/12/10 02:45:16;;;;;;;1.70;1.60;;;15.50;54.50;16.20;98855.00;;;;4966872;28;20228;-42
2021/12/10 02:47:43;;;;;;;1.70;1.60;;;15.50;54.60;16.20;98847.00;;;;4966636;28;20181;-42
2021/12/10 02:50:09;;;;;;;1.70;1.60;;;15.40;54.60;16.20;98835.00;;;;4967190;28;20196;-42
2021/12/10 02:52:35;;;;;;;1.50;1.40;;;15.40;54.70;16.20;98825.00;;;;4966625;28;20248;-42
2021/12/10 02:55:01;;;;;;;1.60;1.50;;;15.40;54.60;16.20;98813.00;;;;4966754;28;20236;-42
2021/12/10 02:57:27;;;;;;;1.60;1.50;;;15.40;54.70;16.20;98815.00;;;;4966820;28;20169;-42
2021/12/10 02:59:53;;;;;;;1.60;1.50;;;15.30;54.70;16.20;98805.00;;;;4966781;28;20177;-42
2021/12/10 03:02:21;;;;;;;1.50;1.40;;;15.30;54.80;16.20;98795.00;;;;4966150;28;20197;-42
2021/12/10 03:04:47;;;;;;;2.30;1.60;;;15.30;54.80;16.10;98787.00;;;;4966635;28;20177;-43
2021/12/10 03:07:14;;;;;;;1.40;1.30;;;15.30;54.80;16.10;98797.00;;;;4966456;28;20184;-42
2021/12/10 03:09:46;;;;;;;1.50;1.40;;;15.20;54.80;16.10;98773.00;;;;4966548;28;20560;-42
2021/12/10 03:12:12;;;;;;;1.70;1.60;;;15.20;54.90;16.10;98781.00;;;;4966163;28;20196;-42
2021/12/10 03:14:40;;;;;;;1.53;1.43;;;15.20;54.90;16.10;98785.00;;;;4966946;28;20236;-42
2021/12/10 03:17:17;;;;;;;1.60;1.50;;;15.20;54.90;16.10;98771.00;;;;4966234;28;20648;-42
2021/12/10 03:19:43;;;;;;;1.70;1.60;;;15.10;54.90;16.00;98765.00;;;;4970234;28;20261;-42
2021/12/10 03:22:09;;;;;;;1.70;1.60;;;15.10;54.80;16.00;98763.00;;;;4970203;28;20261;-42
2021/12/10 03:24:34;;;;;;;1.97;1.50;;;15.10;54.90;16.00;98764.00;;;;4970112;28;20551;-43
2021/12/10 03:27:03;;;;;;;1.57;1.47;;;15.00;54.70;16.00;98764.00;;;;4970574;28;20289;-43
2021/12/10 03:29:29;;;;;;;1.53;1.43;;;15.00;54.80;16.00;98765.00;;;;4970532;28;20177;-43
2021/12/10 03:31:56;;;;;;;2.60;1.70;;;15.00;54.90;16.00;98761.00;;;;4969966;28;20177;-44
2021/12/10 03:34:22;;;;;;;1.40;1.30;;;15.00;55.00;15.90;98747.00;;;;4970191;28;20197;-43
2021/12/10 03:36:50;;;;;;;1.53;1.43;;;14.90;55.00;15.90;98749.00;;;;4970040;28;20513;-42
2021/12/10 03:39:18;;;;;;;1.60;1.50;;;14.90;55.00;15.90;98744.00;;;;4970123;28;20443;-42
2021/12/10 03:41:43;;;;;;;1.50;1.40;;;14.90;55.00;15.90;98735.00;;;;4969727;28;20252;-42
2021/12/10 03:44:09;;;;;;;1.43;1.33;;;14.80;55.00;15.80;98731.00;;;;4969417;28;20291;-42
2021/12/10 03:46:35;;;;;;;1.70;1.60;;;14.80;55.00;15.80;98732.00;;;;4969515;28;20200;-42
2021/12/10 03:49:03;;;;;;;1.50;1.40;;;14.80;55.10;15.80;98727.00;;;;4968445;28;20216;-42
2021/12/10 03:51:31;;;;;;;1.53;1.43;;;14.70;55.00;15.80;98713.00;;;;4960551;28;20185;-42
2021/12/10 03:53:58;;;;;;;1.60;1.50;;;14.70;55.10;15.80;98709.00;;;;4967944;28;20698;-43
2021/12/10 03:56:26;;;;;;;1.53;1.43;;;14.70;55.10;15.70;98720.00;;;;4969878;28;20169;-42
2021/12/10 03:58:52;;;;;;;2.07;1.60;;;14.70;55.30;15.70;98709.00;;;;4969315;28;20188;-42
2021/12/10 04:01:22;;;;;;;1.70;1.60;;;14.70;55.10;15.70;98708.00;;;;4969064;28;20260;-43
2021/12/10 04:03:50;;;;;;;1.40;1.30;;;14.70;55.20;15.70;98700.00;;;;4969034;28;20228;-41
2021/12/10 04:06:16;;;;;;;1.50;1.40;;;14.60;55.20;15.70;98693.00;;;;4969425;28;20189;-42
2021/12/10 04:08:42;;;;;;;1.73;1.63;;;14.60;55.10;15.40;98691.00;;;;4969211;28;20192;-43
2021/12/10 04:11:07;;;;;;;2.30;1.50;;;14.60;55.10;15.40;98691.00;;;;4968885;28;20177;-42
2021/12/10 04:13:34;;;;;;;1.40;1.30;;;14.60;55.10;15.60;98679.00;;;;4967982;28;20240;-42
2021/12/10 04:15:59;;;;;;;1.50;1.40;;;14.60;55.10;15.60;98689.00;;;;4968781;28;20180;-41
2021/12/10 04:18:25;;;;;;;1.50;1.40;;;14.50;55.10;15.60;98695.00;;;;4969460;28;20173;-43
2021/12/10 04:20:51;;;;;;;1.60;1.50;;;14.50;55.10;15.50;98682.00;;;;4967808;28;20173;-44
2021/12/10 04:23:19;;;;;;;1.40;1.30;;;14.40;55.10;15.50;98681.00;;;;4967663;28;20197;-43
2021/12/10 04:25:45;;;;;;;2.27;1.60;;;14.40;55.20;15.50;98675.00;;;;4968711;28;20211;-43
2021/12/10 04:28:13;;;;;;;1.70;1.60;;;14.40;55.10;15.50;98670.00;;;;4968715;28;20173;-43
2021/12/10 04:30:41;;;;;;;1.80;1.60;;;14.40;55.20;15.40;98676.00;;;;4966898;28;20509;-43
2021/12/10 04:33:12;;;;;;;1.50;1.40;;;14.40;55.00;15.40;98662.00;;;;4968701;28;20228;-44
2021/12/10 04:35:38;;;;;;;1.40;1.30;;;14.40;55.20;15.40;98656.00;;;;4968872;28;20556;-43
2021/12/10 04:38:04;;;;;;;1.60;1.50;;;14.30;55.00;15.30;98645.00;;;;4968612;28;20520;-43
2021/12/10 04:40:30;;;;;;;1.70;1.60;;;14.30;55.10;15.30;98567.00;;;;4967957;28;20188;-43
2021/12/10 04:42:56;;;;;;;1.60;1.50;;;14.30;55.10;15.30;98652.00;;;;4968024;28;20196;-43
2021/12/10 04:45:21;;;;;;;1.70;1.60;;;14.30;55.00;15.30;98655.00;;;;4968894;28;20172;-43
2021/12/10 04:47:47;;;;;;;1.80;1.70;;;14.30;55.10;15.30;98639.00;;;;4968323;28;20193;-44
2021/12/10 04:50:15;;;;;;;1.77;1.43;;;14.20;55.00;15.30;98640.00;;;;4968520;28;20188;-44
2021/12/10 04:52:40;;;;;;;1.50;1.40;;;14.20;55.10;15.30;98635.00;;;;4968004;28;20228;-43
2021/12/10 04:55:08;;;;;;;1.53;1.43;;;14.20;55.00;15.20;98622.00;;;;4968413;28;20173;-44
2021/12/10 04:57:34;;;;;;;1.67;1.47;;;14.20;55.00;15.20;98622.00;;;;4968336;28;20256;-43
2021/12/10 05:00:00;;;;;;;1.57;1.43;;;14.10;54.90;15.20;98622.00;;;;4968445;28;20347;-43
2021/12/10 05:02:26;;;;;;;1.50;1.40;;;14.10;55.00;15.20;98619.00;;;;4967947;28;20205;-43
2021/12/10 05:04:56;;;;;;;2.87;1.40;;;14.10;55.00;15.20;98617.00;;;;4967880;28;20324;-42
2021/12/10 05:07:23;;;;;;;3.33;1.70;;;14.10;55.00;15.10;98615.00;;;;4968145;28;20169;-44
2021/12/10 05:09:48;;;;;;;2.30;1.60;;;14.10;55.00;15.10;98604.00;;;;4968588;28;20231;-44
2021/12/10 05:12:14;;;;;;;1.60;1.50;;;14.10;54.90;15.10;98592.00;;;;4967862;28;20684;-43
2021/12/10 05:14:40;;;;;;;2.40;1.40;;;14.10;55.10;15.10;98593.00;;;;4968274;28;20184;-43
2021/12/10 05:17:07;;;;;;;1.67;1.50;;;14.00;55.00;15.10;98596.00;;;;4970413;28;20172;-43
2021/12/10 05:19:35;;;;;;;1.90;1.50;;;14.00;55.00;15.00;98596.00;;;;4968008;28;20173;-43
2021/12/10 05:22:01;;;;;;;1.50;1.40;;;14.00;54.90;15.00;98584.00;;;;4967692;28;20263;-43
2021/12/10 05:24:28;;;;;;;1.53;1.43;;;14.00;54.90;15.00;98578.00;;;;4968227;28;20180;-43
2021/12/10 05:26:54;;;;;;;2.17;1.60;;;14.00;55.00;15.00;98579.00;;;;4967980;28;20420;-43
2021/12/10 05:29:20;;;;;;;1.63;1.53;;;13.90;55.10;15.00;98569.00;;;;4967532;28;20189;-43
2021/12/10 05:31:46;;;;;;;1.80;1.70;;;13.90;54.90;15.00;98558.00;;;;4967221;28;20652;-43
2021/12/10 05:34:12;;;;;;;1.70;1.60;;;13.90;55.10;14.90;98563.00;;;;4967576;28;20205;-42
2021/12/10 05:36:38;;;;;;;1.60;1.50;;;13.90;55.10;14.90;98554.00;;;;4967894;28;20402;-45
2021/12/10 05:39:04;;;;;;;1.60;1.50;;;13.90;55.20;14.90;98553.00;;;;4967742;28;20173;-41
2021/12/10 05:41:30;;;;;;;2.17;1.77;;;13.80;55.20;14.90;98538.00;;;;4966304;28;20185;-43
2021/12/10 05:43:56;;;;;;;2.67;1.60;;;13.80;55.10;14.90;98538.00;;;;4967806;28;20204;-43
2021/12/10 05:46:21;;;;;;;1.73;1.60;;;13.80;55.00;14.90;98544.00;;;;4967579;28;20260;-42
2021/12/10 05:48:47;;;;;;;2.20;1.47;;;13.80;55.70;14.80;98555.00;;;;4967333;28;20189;-42
2021/12/10 05:51:13;;;;;;;1.47;1.37;;;13.80;55.00;14.80;98529.00;;;;4966578;28;20648;-41
2021/12/10 05:53:39;;;;;;;1.63;1.53;;;13.70;54.90;14.80;98539.00;;;;4966870;28;20695;-43
2021/12/10 05:56:05;;;;;;;2.20;1.50;;;13.70;54.90;14.80;98547.00;;;;4967598;28;20172;-43
2021/12/10 05:58:31;;;;;;;1.83;1.40;;;13.70;54.90;14.80;98526.00;;;;4967561;28;20747;-42
2021/12/10 06:01:03;;;;;;;1.57;1.47;;;13.70;54.80;14.80;98518.00;;;;4966721;28;20656;-43
2021/12/10 06:03:33;;;;;;;1.70;1.40;;;13.70;55.00;14.70;98519.00;;;;4966865;28;20192;-43
2021/12/10 06:06:00;;;;;;;2.30;1.33;;;13.70;54.90;14.70;98518.00;;;;4967588;28;20173;-42
2021/12/10 06:08:25;;;;;;;1.80;1.70;;;13.70;54.80;14.70;98500.00;;;;4966884;28;20567;-43
2021/12/10 06:10:52;;;;;;;3.00;1.80;;;13.70;54.80;14.70;98503.00;;;;4966356;28;20169;-43
2021/12/10 06:13:18;;;;;;;1.77;1.47;;;13.70;54.60;14.70;98501.00;;;;4966797;28;20209;-43
2021/12/10 06:15:44;;;;;;;1.43;1.33;;;13.80;54.40;14.80;98495.00;;;;4966647;28;20176;-43
2021/12/10 06:18:09;;;;;;;2.13;1.60;;;14.00;54.30;14.90;98489.00;;;;4966586;28;20184;-41
2021/12/10 06:20:49;;;;;;;1.53;1.43;;;14.30;54.20;15.00;98491.00;;;;4966611;28;20173;-42
2021/12/10 06:23:15;;;;;;;1.93;1.60;;;14.50;54.40;15.10;98489.00;;;;4967135;28;20271;-42
2021/12/10 06:25:41;;;;;;;1.67;1.53;;;14.80;53.50;15.20;98487.00;;;;4965712;28;20169;-44
2021/12/10 06:28:08;;;;;;;2.63;1.30;;;15.10;53.20;15.40;98485.00;;;;4965599;28;20278;-43
2021/12/10 06:30:38;;;;;;;2.30;1.70;;;15.20;53.00;15.60;98490.00;;;;4966213;28;20173;-43
2021/12/10 06:33:05;;;;;;;1.73;1.63;;;15.40;52.90;15.70;98485.00;;;;4966583;28;20209;-43
2021/12/10 06:35:31;;;;;;;3.07;1.60;;;15.50;52.70;15.80;98481.00;;;;4966745;28;20185;-42
2021/12/10 06:37:57;;;;;;;1.93;1.63;;;15.50;52.70;15.90;98480.00;;;;4966473;28;20187;-43
2021/12/10 06:40:25;;;;;;;2.00;1.47;;;15.60;52.80;15.90;98475.00;;;;4966317;28;20169;-43
2021/12/10 06:42:51;;;;;;;2.27;1.37;;;15.60;52.80;16.00;98471.00;;;;4966575;28;20215;-44
2021/12/10 06:45:19;;;;;;;1.60;1.50;;;15.70;52.80;16.10;98465.00;;;;4968673;28;20153;-42
2021/12/10 06:47:47;;;;;;;2.10;1.60;;;15.60;52.80;16.10;98469.00;;;;4967842;28;20181;-43
2021/12/10 06:50:18;;;;;;;2.00;1.50;;;15.60;52.80;16.10;98464.00;;;;4966822;28;20173;-42
2021/12/10 06:52:44;;;;;;;2.07;1.60;;;15.60;53.10;16.10;98464.00;;;;4966853;28;20702;-44
2021/12/10 06:55:10;;;;;;;1.70;1.57;;;15.50;53.00;16.10;98467.00;;;;4969457;28;20169;-42
2021/12/10 06:57:37;;;;;;;1.70;1.50;;;15.60;53.10;16.20;98469.00;;;;4970327;28;20255;-42
2021/12/10 07:00:11;;;;;;;1.70;1.60;;;15.60;53.10;16.20;98463.00;;;;4970232;28;20308;-42
2021/12/10 07:02:36;;;;;;;2.03;1.70;;;15.60;53.10;16.20;98466.00;;;;4969755;28;20282;-43
2021/12/10 07:05:03;;;;;;;1.50;1.40;;;15.50;53.20;16.20;98461.00;;;;4970506;28;20223;-43
2021/12/10 07:07:29;;;;;;;1.67;1.57;;;15.50;53.30;16.20;98461.00;;;;4969905;28;20171;-43
2021/12/10 07:09:55;;;;;;;1.87;1.50;;;15.50;53.30;16.20;98455.00;;;;4970345;28;20177;-43
2021/12/10 07:12:21;;;;;;;2.53;1.60;;;15.40;53.30;16.20;98460.00;;;;4972506;28;20276;-43
2021/12/10 07:14:46;;;;;;;1.70;1.50;;;15.40;53.30;16.20;98467.00;;;;4973402;28;20325;-43
2021/12/10 07:17:12;;;;;;;1.90;1.63;;;15.40;53.40;16.20;98462.00;;;;4973146;28;20177;-43
2021/12/10 07:19:40;;;;;;;1.87;1.53;;;15.40;54.20;16.20;98459.00;;;;4973316;28;20181;-43
2021/12/10 07:22:06;;;;;;;1.73;1.27;;;15.30;53.50;16.20;98458.00;;;;4972045;28;20169;-43
2021/12/10 07:24:31;;;;;;;1.57;1.40;;;15.30;53.50;16.10;98458.00;;;;4972796;28;20338;-42
2021/12/10 07:26:58;;;;;;;1.50;1.40;;;15.30;53.60;16.10;98455.00;;;;4973103;28;20173;-45
2021/12/10 07:29:23;;;;;;;1.87;1.60;;;15.30;53.60;16.10;98455.00;;;;4972977;28;20188;-43
2021/12/10 07:31:49;;;;;;;2.13;1.57;;;15.30;53.70;16.10;98453.00;;;;4972510;28;20542;-43
2021/12/10 07:34:15;;;;;;;1.87;1.47;;;15.20;53.60;16.10;98456.00;;;;4972598;28;20212;-42
2021/12/10 07:36:41;;;;;;;1.70;1.60;;;15.20;53.70;16.00;98454.00;;;;4971829;28;20205;-43
2021/12/10 07:39:07;;;;;;;1.70;1.60;;;15.10;53.70;16.00;98450.00;;;;4973018;28;20169;-43
2021/12/10 07:41:34;;;;;;;2.03;1.80;;;15.10;53.80;16.00;98451.00;;;;4972280;28;20165;-43
2021/12/10 07:44:00;;;;;;;4.90;1.73;;;15.10;54.00;15.70;98444.00;;;;4972849;28;20189;-43
2021/12/10 07:46:27;;;;;;;4.50;1.73;;;15.10;54.30;16.00;98453.00;;;;4972612;28;20189;-42
2021/12/10 07:48:53;;;;;;;3.27;1.57;;;15.10;54.80;16.00;98453.00;;;;4971479;28;20185;-43
2021/12/10 07:51:22;;;;;;;3.33;1.77;;;15.10;55.50;16.00;98454.00;;;;4972581;28;20173;-43
2021/12/10 07:53:48;;;;;;;4.43;1.70;;;15.00;55.60;15.90;98446.00;;;;4972922;28;20213;-42
2021/12/10 07:56:15;;;;;;;2.70;1.63;;;15.10;55.80;15.90;98443.00;;;;4972717;28;20179;-42
2021/12/10 07:58:42;;;;;;;3.10;1.60;;;15.00;55.70;15.90;98444.00;;;;4972117;28;20224;-43
2021/12/10 08:01:30;;;;;;;4.00;1.73;;;14.90;55.40;15.90;98451.00;;;;4972475;28;20648;-42
2021/12/10 08:03:56;;;;;;;3.53;1.57;;;14.90;55.30;15.80;98447.00;;;;4970946;28;20216;-42
2021/12/10 08:06:22;;;;;;;3.70;1.80;;;14.90;55.30;15.80;98444.00;;;;4972403;28;20231;-43
2021/12/10 08:08:48;;;;;;;3.73;1.60;;;14.90;55.30;15.80;98444.00;;;;4970685;28;20563;-42
2021/12/10 08:11:14;;;;;;;1.90;1.80;;;14.80;55.20;15.80;98434.00;;;;4969193;28;20211;-43
2021/12/10 08:13:40;;;;;;;2.03;1.77;;;14.80;55.20;15.70;98449.00;;;;4958116;28;20273;-43
2021/12/10 08:16:06;;;;;;;4.67;1.80;;;14.80;55.10;15.70;98445.00;;;;4968870;28;20216;-43
2021/12/10 08:18:31;;;;;;;2.57;1.70;;;14.80;55.10;15.50;98444.00;;;;4970878;28;20162;-43
2021/12/10 08:20:58;;;;;;;3.50;1.80;;;14.80;55.00;15.70;98435.00;;;;4970272;28;20181;-42
2021/12/10 08:23:24;;;;;;;1.97;1.77;;;14.70;55.10;15.70;98437.00;;;;4971550;28;20297;-43
2021/12/10 08:25:50;;;;;;;1.43;1.33;;;14.70;55.10;15.60;98442.00;;;;4971701;28;20170;-43
2021/12/10 08:28:15;;;;;;;2.00;1.50;;;14.70;55.00;15.60;98433.00;;;;4971183;28;20185;-42
2021/12/10 08:30:41;;;;;;;1.87;1.50;;;14.60;54.90;15.60;98437.00;;;;4971277;28;20401;-42
2021/12/10 08:33:14;;;;;;;1.90;1.70;;;14.60;55.00;15.60;98433.00;;;;4971408;28;20208;-43
2021/12/10 08:35:43;;;;;;;2.60;1.50;;;14.60;55.00;15.60;98437.00;;;;4971395;28;20215;-43
2021/12/10 08:38:09;;;;;;;2.30;1.80;;;14.50;54.90;15.40;98428.00;;;;4971558;28;20255;-42
2021/12/10 08:40:39;;;;;;;3.57;1.77;;;14.50;54.90;15.50;98366.00;;;;4955298;28;20260;-43
2021/12/10 08:43:05;;;;;;;2.30;1.60;;;14.50;55.10;15.50;98435.00;;;;4951733;28;20668;-43
2021/12/10 08:45:31;;;;;;;2.07;1.60;;;14.40;55.00;15.50;98437.00;;;;4950309;29;20174;-43
2021/12/10 08:47:57;;;;;;;2.10;1.80;;;14.50;54.80;15.40;98441.00;;;;4951552;28;20182;-43
2021/12/10 08:50:24;;;;;;;1.80;1.70;;;14.50;55.20;15.40;98436.00;;;;4951377;28;20181;-43
2021/12/10 08:52:51;;;;;;;2.20;1.80;;;14.40;55.00;15.40;98429.00;;;;4951772;28;20266;-42
2021/12/10 08:55:17;;;;;;;4.33;1.80;;;14.40;55.00;15.40;98427.00;;;;4952484;28;20557;-43
2021/12/10 08:57:44;;;;;;;2.27;1.80;;;14.40;55.00;15.40;98426.00;;;;4951969;28;20173;-43
2021/12/10 09:00:10;;;;;;;2.60;1.80;;;14.30;54.90;15.40;98431.00;;;;4951632;28;20775;-42
2021/12/10 09:02:37;;;;;;;2.10;1.90;;;14.40;55.00;15.40;98424.00;;;;4951137;28;20197;-43
2021/12/10 09:05:08;;;;;;;3.10;2.07;;;14.30;54.90;15.30;98426.00;;;;4956365;28;20231;-42
2021/12/10 09:07:33;;;;;;;2.63;2.00;;;14.30;55.00;15.20;98426.00;;;;4970549;28;20208;-42
2021/12/10 09:09:59;;;;;;;2.53;1.80;;;14.30;55.00;15.20;98431.00;;;;4970490;28;20176;-43
2021/12/10 09:12:27;;;;;;;2.97;2.07;;;14.30;55.00;15.20;98430.00;;;;4955545;28;20863;-42
2021/12/10 09:14:55;;;;;;;1.80;1.70;;;14.20;54.80;15.20;98431.00;;;;4970548;28;20268;-43
2021/12/10 09:17:24;;;;;;;2.27;2.00;;;14.20;55.10;15.20;98438.00;;;;4950301;28;20188;-42
2021/12/10 09:19:51;;;;;;;2.40;1.70;;;14.20;54.80;15.10;98425.00;;;;4951371;29;20447;-41
2021/12/10 09:22:17;;;;;;;2.20;1.80;;;14.20;54.80;15.10;98427.00;;;;4950585;28;20261;-43
2021/12/10 09:24:43;;;;;;;2.00;1.80;;;14.20;54.90;15.10;98418.00;;;;4957297;28;20605;-42
2021/12/10 09:27:09;;;;;;;4.03;2.00;;;14.10;54.90;15.10;98436.00;;;;4967380;28;20212;-42
2021/12/10 09:29:37;;;;;;;2.37;2.03;;;14.10;55.30;15.10;98425.00;;;;4969181;28;20189;-42
2021/12/10 09:32:05;;;;;;;1.80;1.70;;;14.10;54.80;15.10;98434.00;;;;4968625;28;20552;-42
2021/12/10 09:34:31;;;;;;;2.53;2.00;;;14.10;54.70;15.00;98433.00;;;;4969773;28;20178;-43
2021/12/10 09:36:57;;;;;;;2.10;1.90;;;14.10;54.70;15.00;98432.00;;;;4969928;28;20223;-43
2021/12/10 09:39:22;;;;;;;3.20;1.83;;;14.10;54.80;15.00;98426.00;;;;4969492;28;20170;-43
2021/12/10 09:41:48;;;;;;;2.37;1.90;;;14.10;54.90;15.00;98435.00;;;;4969654;28;20162;-42
2021/12/10 09:44:15;;;;;;;1.80;1.70;;;14.00;54.80;15.00;98424.00;;;;4973368;28;20197;-43
2021/12/10 09:46:41;;;;;;;3.77;2.00;;;14.10;54.90;15.00;98435.00;;;;4972349;28;20228;-43
2021/12/10 09:49:08;;;;;;;2.00;1.80;;;14.10;54.70;14.90;98429.00;;;;4968537;28;20368;-42
2021/12/10 09:51:50;;;;;;;2.13;1.80;;;14.00;54.80;14.90;98421.00;;;;4968627;28;20181;-43
2021/12/10 09:54:20;;;;;;;2.00;1.80;;;14.00;54.70;14.90;98427.00;;;;4967794;28;20312;-42
2021/12/10 09:57:11;;;;;;;2.47;1.90;;;14.00;55.00;14.90;98424.00;;;;4969471;28;20449;-42
2021/12/10 09:59:39;;;;;;;1.80;1.70;;;14.00;54.80;14.90;98415.00;;;;4969376;28;20169;-42
2021/12/10 10:02:06;;;;;;;2.00;1.80;;;13.90;54.80;14.90;98418.00;;;;4958043;28;20185;-43
2021/12/10 10:04:34;;;;;;;2.00;1.80;;;13.90;54.70;14.80;98420.00;;;;4949691;28;20208;-43
2021/12/10 10:07:07;;;;;;;2.43;1.73;;;13.90;54.60;14.80;98410.00;;;;4949993;28;20189;-41
2021/12/10 10:09:33;;;;;;;1.60;1.50;;;13.90;54.80;14.80;98404.00;;;;4949836;28;20177;-44
2021/12/10 10:12:09;;;;;;;2.00;1.77;;;13.90;54.70;14.80;98402.00;;;;4949276;28;20675;-43
2021/12/10 10:14:35;;;;;;;2.00;1.80;;;13.90;54.80;14.80;98391.00;;;;4949556;28;20261;-43
2021/12/10 10:17:01;;;;;;;2.50;2.00;;;13.80;55.00;14.70;98373.00;;;;4949391;28;20182;-43
2021/12/10 10:19:27;;;;;;;2.07;1.87;;;13.80;54.60;14.70;98317.00;;;;4949312;28;20236;-43
2021/12/10 10:21:55;;;;;;;2.20;2.00;;;13.80;54.60;14.80;98380.00;;;;4948885;28;20181;-43
2021/12/10 10:24:24;;;;;;;1.93;1.80;;;13.80;54.80;14.70;98373.00;;;;4949803;28;20809;-44
2021/12/10 10:26:56;;;;;;;1.70;1.60;;;13.80;54.70;14.70;98383.00;;;;4949727;28;20174;-43
2021/12/10 10:29:23;;;;;;;2.03;1.83;;;13.80;54.80;14.70;98376.00;;;;4949446;28;20534;-43
2021/12/10 10:31:53;;;;;;;1.70;1.60;;;13.80;54.80;14.70;98381.00;;;;4949652;28;20697;-44
2021/12/10 10:34:19;;;;;;;2.37;1.67;;;13.70;54.70;14.70;98365.00;;;;4949073;28;20226;-44
2021/12/10 10:36:45;;;;;;;1.73;1.63;;;13.70;54.70;14.70;98375.00;;;;4949656;28;20181;-43
2021/12/10 10:39:23;;;;;;;1.80;1.63;;;13.70;54.80;14.70;98359.00;;;;4949176;28;20184;-44
2021/12/10 10:41:53;;;;;;;1.70;1.60;;;13.80;54.60;14.70;98367.00;;;;4948944;28;20392;-44
2021/12/10 10:44:20;;;;;;;1.70;1.60;;;14.00;54.40;14.80;98371.00;;;;4949396;28;20197;-44
2021/12/10 10:46:46;;;;;;;2.00;1.80;;;14.10;54.00;14.90;98363.00;;;;4950077;28;20189;-42
2021/12/10 10:49:41;;;;;;;2.50;1.80;;;14.40;54.10;15.00;98367.00;;;;4948674;29;20258;-43
2021/12/10 10:52:31;;;;;;;2.47;1.80;;;14.70;53.70;15.20;98362.00;;;;4948478;29;20268;-43
2021/12/10 10:55:23;;;;;;;2.17;1.70;;;14.90;53.40;15.30;98350.00;;;;4958876;28;20186;-43
2021/12/10 10:57:54;;;;;;;2.13;1.70;;;15.30;53.00;15.50;98357.00;;;;4950049;28;20660;-43
2021/12/10 11:01:01;;;;;;;1.80;1.70;;;15.50;53.00;15.70;98363.00;;;;4963593;28;20177;-43
2021/12/10 11:03:45;;;;;;;2.23;1.80;;;15.60;52.80;15.80;98362.00;;;;4969164;28;20349;-44
2021/12/10 11:06:16;;;;;;;1.47;1.37;;;15.60;52.90;15.80;98361.00;;;;4969158;28;20173;-43
2021/12/10 11:08:48;;;;;;;1.97;1.60;;;15.60;52.80;15.90;98354.00;;;;4959308;28;20188;-43
2021/12/10 11:11:26;;;;;;;2.00;1.80;;;15.60;52.90;16.00;98344.00;;;;4968352;28;20188;-44